• Join FlightAware (Why Join?)
  • Login
  • US Flag 
02:28AM EST


 

Airport Tracker/Info


-or-


 

Live Flight TrackerFlight Track Log ✈ SWA1004 ✈ 15-Sep-2013 ✈ KBOS - KHOU

Flight Track Log - Related Links

Times and Time Zones

All times are in EDT time to prevent confusion due to time zone crossing. See the SWA1004 flight status page for this flight to view local times or setup timezone preferences in your user account.

Time Position Orientation Groundspeed Altitude Reporting Facility
EDT Latitude Longitude Course Direction KTS MPH feet Rate Location/Type
08:17AM 42.3500 -71.0167 144° Southeast 158 182 800  Level KA90
08:18AM 42.3333 -71.0000 144° Southeast 174 200 2,000 2,640 Climbing KA90
08:20AM 42.3325 -70.8225 90° East 272 313 8,100 2,640 Climbing Boston Center
08:21AM 42.2814 -70.7394 130° Southeast 253 291 10,700 2,460 Climbing Boston Center
08:22AM 42.1964 -70.7642 192° South 222 255 13,100 2,760 Climbing Boston Center
08:23AM 42.1647 -70.8939 252° West 240 276 16,200 2,700 Climbing Boston Center
08:24AM 42.1642 -71.0144 270° West 316 364 18,500 2,400 Climbing Boston Center
08:25AM 42.1492 -71.1575 262° West 351 404 21,100 2,460 Climbing Boston Center
08:26AM 42.1217 -71.2953 255° West 372 428 23,400 2,160 Climbing Boston Center
08:27AM 42.0897 -71.4386 253° West 386 444 25,500 1,860 Climbing Boston Center
08:28AM 42.0533 -71.5817 251° West 403 464 27,200 1,500 Climbing Boston Center
08:29AM 42.0189 -71.7331 253° West 413 475 28,600 1,260 Climbing Boston Center
08:30AM 41.9844 -71.8928 254° West 426 490 29,700 1,500 Climbing Boston Center
08:31AM 41.9494 -72.0522 254° West 447 514 31,600 1,860 Climbing Boston Center
08:32AM 41.9125 -72.2086 252° West 447 514 33,500 1,740 Climbing Boston Center
08:33AM 41.8794 -72.3647 254° West 447 514 35,100 1,500 Climbing Boston Center
08:34AM 41.8439 -72.5153 252° West 440 506 36,500 1,380 Climbing Boston Center
08:35AM 41.8083 -72.6797 254° West 430 495 37,900 720 Climbing Boston Center
08:36AM 41.7725 -72.8158 251° West 430 495 38,000  Climbing Boston Center
08:37AM 41.7386 -72.9686 253° West 430 495 38,000  Level Boston Center
08:39AM 41.6683 -73.2678 253° West 416 479 38,000  Level New York Center
08:40AM 41.5986 -73.4122 237° Southwest 427 491 38,000  Level New York Center
08:41AM 41.5206 -73.5392 231° Southwest 429 494 38,000  Level New York Center
08:42AM 41.4428 -73.6661 231° Southwest 443 510 38,000  Level New York Center
08:43AM 41.3644 -73.7925 230° Southwest 448 516 38,000  Level New York Center
08:44AM 41.2864 -73.9161 230° Southwest 448 516 38,000  Level New York Center
08:45AM 41.2100 -74.0392 230° Southwest 448 516 38,000  Level New York Center
08:46AM 41.1317 -74.1650 230° Southwest 448 516 38,000  Level New York Center
08:47AM 41.0556 -74.2739 227° Southwest 448 516 38,000  Level New York Center
08:48AM 40.9767 -74.3989 230° Southwest 448 516 38,000  Level New York Center
08:49AM 40.9000 -74.5211 230° Southwest 443 510 38,000  Level New York Center
08:50AM 40.8208 -74.6456 230° Southwest 443 510 38,000  Level New York Center
08:51AM 40.7419 -74.7672 229° Southwest 443 510 38,000  Level New York Center
08:52AM 40.6647 -74.8886 230° Southwest 443 510 38,000  Level New York Center
08:53AM 40.5833 -75.0119 229° Southwest 443 510 38,000  Level New York Center
08:54AM 40.5058 -75.1383 231° Southwest 443 510 38,000  Level New York Center
08:55AM 40.4242 -75.2586 228° Southwest 443 510 38,000  Level New York Center
08:56AM 40.3356 -75.3972 230° Southwest 448 516 38,000  Level New York Center
08:57AM 40.2536 -75.5194 229° Southwest 448 516 38,000  Level New York Center
08:58AM 40.1731 -75.6497 231° Southwest 455 524 38,000  Level New York Center
08:59AM 40.0992 -75.7747 232° Southwest 455 524 38,000  Level New York Center
09:00AM 40.0208 -75.8994 231° Southwest 455 524 38,000  Level New York Center
09:01AM 39.9403 -76.0233 230° Southwest 455 524 38,000  Level New York Center
09:02AM 39.8639 -76.1475 231° Southwest 455 524 38,000  Level New York Center
09:03AM 39.7322 -76.3497 230° Southwest 458 527 38,000  Level Washington Center
09:04AM 39.6542 -76.4756 231° Southwest 453 521 38,000  Level Washington Center
09:06AM 39.5636 -76.6117 229° Southwest 453 521 38,000  Level Washington Center
09:06AM 39.4853 -76.7317 230° Southwest 453 521 38,000  Level Washington Center
09:07AM 39.4069 -76.8567 231° Southwest 453 521 38,000  Level Washington Center
09:08AM 39.3264 -76.9814 230° Southwest 453 521 38,000  Level Washington Center
09:09AM 39.2478 -77.1031 230° Southwest 453 521 38,000  Level Washington Center
09:10AM 39.1650 -77.2272 229° Southwest 453 521 38,000  Level Washington Center
09:11AM 39.0861 -77.3458 229° Southwest 453 521 38,000  Level Washington Center
09:13AM 39.0050 -77.4694 230° Southwest 453 521 38,000  Level Washington Center
09:13AM 38.9217 -77.5953 230° Southwest 460 529 38,000  Level Washington Center
09:14AM 38.8425 -77.7186 231° Southwest 460 529 38,000  Level Washington Center
09:16AM 38.7633 -77.8333 229° Southwest 466 536 38,000  Level Washington Center
09:17AM 38.6839 -77.9533 230° Southwest 466 536 38,000  Level Washington Center
09:17AM 38.6042 -78.0756 230° Southwest 466 536 38,000  Level Washington Center
09:19AM 38.5225 -78.1975 229° Southwest 466 536 38,000  Level Washington Center
09:20AM 38.4383 -78.3192 229° Southwest 466 536 38,000  Level Washington Center
09:20AM 38.3583 -78.4408 230° Southwest 461 531 38,000  Level Washington Center
09:21AM 38.2717 -78.5750 231° Southwest 461 531 38,000  Level Washington Center
09:22AM 38.1917 -78.6933 229° Southwest 454 522 38,000  Level Washington Center
09:23AM 38.1069 -78.8167 229° Southwest 459 528 38,000  Level Washington Center
09:25AM 38.0222 -78.9394 229° Southwest 465 535 38,000  Level Washington Center
09:26AM 37.9483 -79.0442 228° Southwest 465 535 38,000  Level Washington Center
09:26AM 37.8694 -79.1747 233° Southwest 465 535 38,000  Level Washington Center
09:27AM 37.8050 -79.3083 239° Southwest 465 535 38,000  Level Washington Center
09:29AM 37.7336 -79.4569 239° Southwest 458 527 38,000  Level Washington Center
09:30AM 37.6625 -79.5897 236° Southwest 458 527 38,000  Level Washington Center
09:30AM 37.5931 -79.7253 237° Southwest 458 527 38,000  Level Washington Center
09:32AM 37.5322 -79.8553 239° Southwest 477 549 38,000  Level Washington Center
09:33AM 37.4064 -80.0939 236° Southwest 472 543 38,000  Level Atlanta Center
09:34AM 37.3278 -80.2417 236° Southwest 472 543 38,000  Level Atlanta Center
09:35AM 37.2589 -80.3806 238° Southwest 472 543 38,000  Level Atlanta Center
09:36AM 37.1878 -80.5142 236° Southwest 472 543 38,000  Level Atlanta Center
09:37AM 37.1189 -80.6525 238° Southwest 472 543 38,000  Level Atlanta Center
09:38AM 37.0639 -80.7772 241° Southwest 472 543 38,000  Level Atlanta Center
09:39AM 37.0092 -80.9250 245° Southwest 465 535 38,000  Level Atlanta Center
09:40AM 36.9608 -81.0669 247° West 460 529 38,000  Level Atlanta Center
09:41AM 36.9017 -81.2119 243° Southwest 455 524 38,000  Level Atlanta Center
09:42AM 36.8236 -81.3575 236° Southwest 463 533 38,000  Level Atlanta Center
09:43AM 36.7636 -81.4761 238° Southwest 468 539 38,000  Level Atlanta Center
09:44AM 36.6872 -81.6236 237° Southwest 468 539 38,000  Level Atlanta Center
09:45AM 36.6147 -81.7575 236° Southwest 468 539 38,000  Level Atlanta Center
09:46AM 36.5422 -81.8939 237° Southwest 473 544 38,000  Level Atlanta Center
09:47AM 36.4714 -82.0225 236° Southwest 468 539 38,000  Level Atlanta Center
09:48AM 36.3983 -82.1583 236° Southwest 473 544 38,000  Level Atlanta Center
09:49AM 36.3253 -82.2917 236° Southwest 473 544 38,000  Level Atlanta Center
09:50AM 36.2522 -82.4269 236° Southwest 473 544 38,000  Level Atlanta Center
09:51AM 36.1889 -82.5467 237° Southwest 473 544 38,000  Level Atlanta Center
09:52AM 36.1156 -82.6817 236° Southwest 473 544 38,000  Level Atlanta Center
09:53AM 36.0417 -82.8139 235° Southwest 473 544 38,000  Level Atlanta Center
09:54AM 35.9678 -82.9483 236° Southwest 473 544 38,000  Level Atlanta Center
09:55AM 35.8919 -83.0853 236° Southwest 473 544 38,000  Level Atlanta Center
09:56AM 35.8219 -83.2167 237° Southwest 473 544 38,000  Level Atlanta Center
09:57AM 35.7475 -83.3478 235° Southwest 473 544 38,000  Level Atlanta Center
09:58AM 35.6753 -83.4839 237° Southwest 473 544 38,000  Level Atlanta Center
09:59AM 35.6006 -83.6122 234° Southwest 473 544 38,000  Level Atlanta Center
10:00AM 35.5281 -83.7478 237° Southwest 478 550 38,000  Level Atlanta Center
10:01AM 35.4511 -83.8806 235° Southwest 478 550 38,000  Level Atlanta Center
10:02AM 35.3761 -84.0133 235° Southwest 478 550 38,000  Level Atlanta Center
10:03AM 35.3008 -84.1456 235° Southwest 478 550 38,000  Level Atlanta Center
10:04AM 35.2236 -84.2803 235° Southwest 478 550 38,000  Level Atlanta Center
10:05AM 35.1419 -84.4247 235° Southwest 478 550 38,000  Level Atlanta Center
10:06AM 35.0661 -84.5589 235° Southwest 478 550 38,000  Level Atlanta Center
10:07AM 34.9883 -84.6903 234° Southwest 483 556 38,000  Level Atlanta Center
10:08AM 34.9106 -84.8214 234° Southwest 483 556 38,000  Level Atlanta Center
10:09AM 34.8344 -84.9547 235° Southwest 483 556 38,000  Level Atlanta Center
10:10AM 34.7583 -85.0856 235° Southwest 488 562 38,000  Level Atlanta Center
10:11AM 34.6797 -85.2183 234° Southwest 488 562 38,000  Level Atlanta Center
10:12AM 34.6011 -85.3536 235° Southwest 488 562 38,000  Level Atlanta Center
10:13AM 34.5247 -85.4861 235° Southwest 488 562 38,000  Level Atlanta Center
10:14AM 34.4436 -85.6181 233° Southwest 488 562 38,000  Level Atlanta Center
10:15AM 34.3794 -85.7378 237° Southwest 488 562 38,000  Level Atlanta Center
10:16AM 34.2897 -85.8767 232° Southwest 488 562 38,000  Level Atlanta Center
10:17AM 34.2106 -86.0081 234° Southwest 488 562 38,000  Level Atlanta Center
10:18AM 34.1311 -86.1417 234° Southwest 493 567 38,000  Level Atlanta Center
10:19AM 34.0494 -86.2728 233° Southwest 493 567 38,000  Level Atlanta Center
10:20AM 33.9697 -86.4033 234° Southwest 493 567 38,000  Level Atlanta Center
10:21AM 33.8922 -86.5314 234° Southwest 493 567 38,000  Level Atlanta Center
10:22AM 33.8122 -86.6614 233° Southwest 493 567 38,000  Level Atlanta Center
10:23AM 33.7322 -86.7914 234° Southwest 488 562 38,000  Level Atlanta Center
10:24AM 33.6561 -86.9261 236° Southwest 488 562 38,000  Level Atlanta Center
10:25AM 33.6006 -87.0692 245° Southwest 478 550 38,000  Level Atlanta Center
10:26AM 33.5425 -87.2142 244° Southwest 478 550 38,000  Level Atlanta Center
10:28AM 33.4400 -87.4694 244° Southwest 475 547 38,000  Level Memphis Center
10:29AM 33.3806 -87.6158 244° Southwest 475 547 38,000  Level Memphis Center
10:30AM 33.3211 -87.7592 244° Southwest 475 547 38,000  Level Memphis Center
10:31AM 33.2633 -87.9025 244° Southwest 475 547 38,000  Level Memphis Center
10:32AM 33.2056 -88.0483 245° Southwest 475 547 38,000  Level Memphis Center
10:33AM 33.1456 -88.1886 243° Southwest 475 547 38,000  Level Memphis Center
10:34AM 33.0936 -88.3289 246° West 468 539 38,000  Level Memphis Center
10:35AM 33.0333 -88.4667 242° Southwest 473 544 38,000  Level Memphis Center
10:36AM 32.9769 -88.6039 244° Southwest 473 544 38,000  Level Memphis Center
10:37AM 32.9203 -88.7436 244° Southwest 468 539 38,000  Level Memphis Center
10:38AM 32.8614 -88.8808 243° Southwest 468 539 38,000  Level Memphis Center
10:39AM 32.8025 -89.0225 244° Southwest 468 539 38,000  Level Memphis Center
10:40AM 32.7411 -89.1569 242° Southwest 468 539 38,000  Level Memphis Center
10:41AM 32.6842 -89.2958 244° Southwest 468 539 38,000  Level Memphis Center
10:42AM 32.6247 -89.4347 243° Southwest 468 539 38,000  Level Memphis Center
10:43AM 32.5650 -89.5686 242° Southwest 468 539 38,000  Level Memphis Center
10:44AM 32.5072 -89.7044 243° Southwest 468 539 38,000  Level Memphis Center
10:45AM 32.4494 -89.8403 243° Southwest 468 539 38,000  Level Memphis Center
10:46AM 32.3917 -89.9736 243° Southwest 468 539 38,000  Level Memphis Center
10:47AM 32.3333 -90.1089 243° Southwest 468 539 38,000  Level Memphis Center
10:48AM 32.2753 -90.2419 243° Southwest 463 533 38,000  Level Memphis Center
10:49AM 32.2169 -90.3744 243° Southwest 463 533 38,000  Level Memphis Center
10:50AM 32.1583 -90.5069 242° Southwest 457 526 38,000  Level Memphis Center
10:51AM 32.1128 -90.6125 243° Southwest 454 522 38,000  Level Houston Center
10:52AM 32.0547 -90.7456 243° Southwest 455 524 38,000  Level Houston Center
10:53AM 32.0025 -90.8689 243° Southwest 457 526 38,000  Level Houston Center
10:54AM 31.9514 -91.0036 246° West 453 521 38,000  Level Houston Center
10:55AM 31.8856 -91.1664 245° Southwest 460 529 38,000  Level Houston Center
10:56AM 31.8322 -91.3003 245° Southwest 456 525 38,000  Level Houston Center
10:57AM 31.7794 -91.4356 245° Southwest 456 525 38,000  Level Houston Center
10:58AM 31.7258 -91.5683 245° Southwest 452 520 38,000  Level Houston Center
10:59AM 31.6728 -91.7003 245° Southwest 450 518 38,000  Level Houston Center
11:00AM 31.6189 -91.8339 245° Southwest 454 522 38,000  Level Houston Center
11:01AM 31.5544 -91.9928 245° Southwest 452 520 38,000  Level Houston Center
11:02AM 31.5000 -92.1200 243° Southwest 447 514 38,000  Level Houston Center
11:03AM 31.4478 -92.2544 246° West 450 518 38,000  Level Houston Center
11:04AM 31.3944 -92.3858 245° Southwest 450 518 38,000  Level Houston Center
11:05AM 31.3364 -92.5131 242° Southwest 452 520 38,000  Level Houston Center
11:06AM 31.2847 -92.6442 245° Southwest 446 513 38,000  Level Houston Center
11:07AM 31.2328 -92.7775 246° West 449 517 38,000  Level Houston Center
11:08AM 31.1678 -92.9325 244° Southwest 446 513 38,000  Level Houston Center
11:09AM 31.1139 -93.0592 244° Southwest 440 506 38,000  Level Houston Center
11:10AM 31.0603 -93.1881 244° Southwest 441 507 38,000  Level Houston Center
11:11AM 31.0081 -93.3139 244° Southwest 436 502 38,000  Level Houston Center
11:13AM 30.9556 -93.4392 244° Southwest 433 498 38,000 -120 Level Houston Center
11:14AM 30.8931 -93.5889 244° Southwest 433 498 37,800 -1,560 Descending Houston Center
11:15AM 30.8397 -93.7150 244° Southwest 438 504 34,800 -2,340 Descending Houston Center
11:16AM 30.7847 -93.8464 244° Southwest 454 522 33,000 -900 Descending Houston Center
11:17AM 30.7292 -93.9786 244° Southwest 459 528 33,000  Level Houston Center
11:18AM 30.6736 -94.1100 244° Southwest 459 528 33,000 -2,220 Level Houston Center
11:19AM 30.6044 -94.2647 243° Southwest 463 533 28,700 -4,260 Descending Houston Center
11:19AM 30.6044 -94.2703 270° West 462 532 28,600 -4,200 Descending Houston Center
11:19AM 30.5653 -94.3550 242° Southwest 480 552 25,700 -3,900 Descending Houston Center
11:20AM 30.5439 -94.4100 246° West 479 551 24,600 -3,600 Descending Houston Center
11:20AM 30.5036 -94.4992 242° Southwest 489 563 22,000 -3,540 Descending Houston Center
11:21AM 30.4758 -94.5475 236° Southwest 476 548 21,000 -3,120 Descending Houston Center
11:21AM 30.4311 -94.6175 233° Southwest 459 528 19,100 -3,000 Descending Houston Center
11:22AM 30.4003 -94.6664 234° Southwest 457 526 17,900 -2,760 Descending Houston Center
11:22AM 30.3561 -94.7339 233° Southwest 435 501 16,300 -2,280 Descending Houston Center
11:23AM 30.3283 -94.7764 233° Southwest 437 503 15,600 -1,380 Descending Houston Center
11:23AM 30.2883 -94.8369 233° Southwest 385 443 14,900 -1,380 Descending Houston Center
11:24AM 30.2664 -94.8742 236° Southwest 389 448 14,200 -1,260 Descending Houston Center
11:24AM 30.2258 -94.9319 231° Southwest 352 405 13,600 -960 Descending Houston Center
11:25AM 30.2072 -94.9633 236° Southwest 360 414 13,200 -1,140 Descending Houston Center
11:25AM 30.1672 -95.0239 233° Southwest 349 402 12,500 -1,200 Descending Houston Center
11:26AM 30.1372 -95.0692 233° Southwest 348 400 12,000 -1,020 Descending Houston Center
11:27AM 30.0814 -95.0947 202° Southwest 336 387 11,400 -900 Descending Houston Center
11:27AM 30.0492 -95.1089 201° Southwest 341 392 11,100 -780 Descending Houston Center
11:28AM 29.9947 -95.1322 200° South 337 388 10,600 -900 Descending Houston Center
11:28AM 29.9625 -95.1458 200° South 335 386 10,200 -720 Descending Houston Center
11:29AM 29.9058 -95.1694 200° South 326 375 9,900 -720 Descending Houston Center
11:29AM 29.8783 -95.1817 201° Southwest 325 374 9,500 -1,200 Descending Houston Center
11:30AM 29.8250 -95.2036 200° South 290 334 8,700 -1,380 Descending Houston Center
11:30AM 29.8031 -95.2144 203° Southwest 297 342 8,100 -1,500 Descending Houston Center
11:31AM 29.7497 -95.2319 196° South 289 333 7,200 -1,680 Descending Houston Center
11:31AM 29.7111 -95.2347 184° South 283 326 6,400 -1,080 Descending Houston Center
11:32AM 29.6722 -95.2342 179° South 273 314 6,100 -540 Descending Houston Center
11:32AM 29.6364 -95.2372 184° South 275 316 5,900 -120 Descending Houston Center
11:33AM 29.5928 -95.2367 179° South 260 299 6,000  Climbing Houston Center
11:33AM 29.5692 -95.2436 194° South 261 300 5,900 -1,500 Descending Houston Center
11:34AM 29.5350 -95.2700 214° Southwest 257 296 4,500 -1,920 Descending Houston Center
11:34AM 29.5136 -95.2914 221° Southwest 258 297 3,900 -900 Descending Houston Center
11:35AM 29.4794 -95.3294 224° Southwest 257 296 3,600 -780 Descending Houston Center
11:35AM 29.4578 -95.3606 231° Southwest 257 296 3,100 -600 Descending Houston Center
11:36AM 29.4689 -95.3956 290° West 233 268 3,000 -720 Descending Houston Center
11:36AM 29.4953 -95.4106 334° Northwest 255 293 2,400 -900 Descending Houston Center
11:37AM 29.5233 -95.3964 24° Northeast 225 259 2,100 -420 Descending Houston Center
11:37AM 29.5519 -95.3828 22° Northeast 233 268 2,000 -300 Descending Houston Center
11:38AM 29.5725 -95.3592 45° Northeast 211 243 1,800 -780 Descending Houston Center
11:38AM 29.5928 -95.3381 42° Northeast 216 249 1,200 -1,020 Descending Houston Center
11:39AM 29.6106 -95.3161 47° Northeast 153 176 800 -780 Descending Houston Center
11:39AM 29.6236 -95.3031 41° Northeast 179 206 400 -720 Descending Houston Center